sensor_id;sensor_type;location;lat;lon;timestamp;pressure;altitude;pressure_sealevel;temperature;humidity
32033;BME280;31720;52.638;9.216;2023-03-08T00:01:23;99618.19;;;0.38;100.00
32033;BME280;31720;52.638;9.216;2023-03-08T00:04:25;99631.81;;;0.43;100.00
32033;BME280;31720;52.638;9.216;2023-03-08T00:07:26;99630.00;;;0.45;100.00
32033;BME280;31720;52.638;9.216;2023-03-08T00:10:28;99637.25;;;0.34;100.00
32033;BME280;31720;52.638;9.216;2023-03-08T00:13:29;99635.19;;;0.45;100.00
32033;BME280;31720;52.638;9.216;2023-03-08T00:16:31;99637.78;;;0.45;100.00
32033;BME280;31720;52.638;9.216;2023-03-08T00:19:33;99638.53;;;0.48;100.00
32033;BME280;31720;52.638;9.216;2023-03-08T00:22:35;99645.38;;;0.49;100.00
32033;BME280;31720;52.638;9.216;2023-03-08T00:25:36;99644.66;;;0.46;100.00
32033;BME280;31720;52.638;9.216;2023-03-08T00:28:37;99644.50;;;0.50;100.00
32033;BME280;31720;52.638;9.216;2023-03-08T00:31:40;99645.63;;;0.42;100.00
32033;BME280;31720;52.638;9.216;2023-03-08T00:34:42;99647.41;;;0.40;100.00
32033;BME280;31720;52.638;9.216;2023-03-08T00:37:46;99643.19;;;0.37;100.00
32033;BME280;31720;52.638;9.216;2023-03-08T00:40:47;99636.34;;;0.35;100.00
32033;BME280;31720;52.638;9.216;2023-03-08T00:43:49;99648.22;;;0.42;100.00
32033;BME280;31720;52.638;9.216;2023-03-08T00:46:51;99650.81;;;0.42;100.00
32033;BME280;31720;52.638;9.216;2023-03-08T00:49:53;99649.19;;;0.38;100.00
32033;BME280;31720;52.638;9.216;2023-03-08T00:52:54;99650.66;;;0.46;100.00
32033;BME280;31720;52.638;9.216;2023-03-08T00:55:57;99655.84;;;0.46;100.00
32033;BME280;31720;52.638;9.216;2023-03-08T00:58:58;99658.56;;;0.42;100.00
32033;BME280;31720;52.638;9.216;2023-03-08T01:02:01;99655.00;;;0.44;100.00
32033;BME280;31720;52.638;9.216;2023-03-08T01:05:03;99650.13;;;0.35;100.00
32033;BME280;31720;52.638;9.216;2023-03-08T01:08:04;99659.66;;;0.33;100.00
32033;BME280;31720;52.638;9.216;2023-03-08T01:11:06;99655.53;;;0.28;100.00
32033;BME280;31720;52.638;9.216;2023-03-08T01:14:07;99656.53;;;0.22;100.00
32033;BME280;31720;52.638;9.216;2023-03-08T01:17:10;99652.19;;;0.24;100.00
32033;BME280;31720;52.638;9.216;2023-03-08T01:20:12;99649.16;;;0.10;100.00
32033;BME280;31720;52.638;9.216;2023-03-08T01:23:13;99640.75;;;0.02;100.00
32033;BME280;31720;52.638;9.216;2023-03-08T01:26:16;99637.72;;;0.17;100.00
32033;BME280;31720;52.638;9.216;2023-03-08T01:29:18;99637.66;;;0.20;100.00
32033;BME280;31720;52.638;9.216;2023-03-08T01:32:21;99634.13;;;0.22;100.00
32033;BME280;31720;52.638;9.216;2023-03-08T01:35:22;99630.75;;;0.20;100.00
32033;BME280;31720;52.638;9.216;2023-03-08T01:38:24;99632.50;;;0.20;100.00
32033;BME280;31720;52.638;9.216;2023-03-08T01:41:27;99623.06;;;0.19;100.00
32033;BME280;31720;52.638;9.216;2023-03-08T01:44:48;99624.94;;;0.12;100.00
32033;BME280;31720;52.638;9.216;2023-03-08T01:47:51;99617.91;;;0.17;100.00
32033;BME280;31720;52.638;9.216;2023-03-08T01:50:52;99616.22;;;0.16;100.00
32033;BME280;31720;52.638;9.216;2023-03-08T01:53:54;99620.47;;;0.19;100.00
32033;BME280;31720;52.638;9.216;2023-03-08T01:56:59;99629.97;;;0.18;100.00
32033;BME280;31720;52.638;9.216;2023-03-08T02:00:03;99622.91;;;0.23;100.00
32033;BME280;31720;52.638;9.216;2023-03-08T02:03:08;99608.97;;;0.29;100.00
32033;BME280;31720;52.638;9.216;2023-03-08T02:06:11;99606.38;;;0.29;100.00
32033;BME280;31720;52.638;9.216;2023-03-08T02:09:14;99602.13;;;0.28;100.00
32033;BME280;31720;52.638;9.216;2023-03-08T02:12:15;99606.66;;;0.20;100.00
32033;BME280;31720;52.638;9.216;2023-03-08T02:15:19;99608.16;;;0.27;100.00
32033;BME280;31720;52.638;9.216;2023-03-08T02:18:22;99599.41;;;0.31;100.00
32033;BME280;31720;52.638;9.216;2023-03-08T02:21:24;99605.91;;;0.44;100.00
32033;BME280;31720;52.638;9.216;2023-03-08T02:24:27;99605.25;;;0.38;100.00
32033;BME280;31720;52.638;9.216;2023-03-08T02:27:28;99606.06;;;0.40;100.00
32033;BME280;31720;52.638;9.216;2023-03-08T02:30:32;99600.94;;;0.38;100.00
32033;BME280;31720;52.638;9.216;2023-03-08T02:33:34;99603.31;;;0.44;100.00
32033;BME280;31720;52.638;9.216;2023-03-08T02:36:35;99605.06;;;0.44;100.00
32033;BME280;31720;52.638;9.216;2023-03-08T02:39:38;99612.75;;;0.47;100.00
32033;BME280;31720;52.638;9.216;2023-03-08T02:42:39;99614.06;;;0.32;100.00
32033;BME280;31720;52.638;9.216;2023-03-08T02:45:41;99604.44;;;0.36;100.00
32033;BME280;31720;52.638;9.216;2023-03-08T02:48:42;99608.22;;;0.25;100.00
32033;BME280;31720;52.638;9.216;2023-03-08T02:51:45;99604.00;;;0.23;100.00
32033;BME280;31720;52.638;9.216;2023-03-08T02:54:47;99606.66;;;0.20;100.00
32033;BME280;31720;52.638;9.216;2023-03-08T02:57:49;99605.69;;;0.22;100.00
32033;BME280;31720;52.638;9.216;2023-03-08T03:00:50;99610.03;;;0.22;100.00
32033;BME280;31720;52.638;9.216;2023-03-08T03:03:53;99591.22;;;0.18;100.00
32033;BME280;31720;52.638;9.216;2023-03-08T03:06:54;99597.94;;;0.24;100.00
32033;BME280;31720;52.638;9.216;2023-03-08T03:09:57;99594.59;;;0.20;100.00
32033;BME280;31720;52.638;9.216;2023-03-08T03:12:59;99597.09;;;0.23;100.00
32033;BME280;31720;52.638;9.216;2023-03-08T03:16:04;99595.16;;;0.30;100.00
32033;BME280;31720;52.638;9.216;2023-03-08T03:19:06;99604.66;;;0.30;100.00
32033;BME280;31720;52.638;9.216;2023-03-08T03:22:07;99604.41;;;0.37;100.00
32033;BME280;31720;52.638;9.216;2023-03-08T03:25:10;99598.50;;;0.34;100.00
32033;BME280;31720;52.638;9.216;2023-03-08T03:28:11;99599.47;;;0.30;100.00
32033;BME280;31720;52.638;9.216;2023-03-08T03:31:14;99600.31;;;0.30;100.00
32033;BME280;31720;52.638;9.216;2023-03-08T03:34:16;99601.28;;;0.28;100.00
32033;BME280;31720;52.638;9.216;2023-03-08T03:37:17;99600.47;;;0.25;100.00
32033;BME280;31720;52.638;9.216;2023-03-08T03:40:20;99601.28;;;0.26;100.00
32033;BME280;31720;52.638;9.216;2023-03-08T03:43:21;99596.09;;;0.28;100.00
32033;BME280;31720;52.638;9.216;2023-03-08T03:46:23;99607.16;;;0.31;100.00
32033;BME280;31720;52.638;9.216;2023-03-08T03:49:24;99605.69;;;0.24;100.00
32033;BME280;31720;52.638;9.216;2023-03-08T03:52:26;99606.66;;;0.20;100.00
32033;BME280;31720;52.638;9.216;2023-03-08T03:55:28;99602.53;;;0.13;100.00
32033;BME280;31720;52.638;9.216;2023-03-08T03:58:30;99604.91;;;0.20;100.00
32033;BME280;31720;52.638;9.216;2023-03-08T04:01:31;99603.31;;;0.16;100.00
32033;BME280;31720;52.638;9.216;2023-03-08T04:04:33;99609.94;;;0.25;100.00
32033;BME280;31720;52.638;9.216;2023-03-08T04:07:34;99607.31;;;0.27;100.00
32033;BME280;31720;52.638;9.216;2023-03-08T04:10:37;99614.47;;;0.18;100.00
32033;BME280;31720;52.638;9.216;2023-03-08T04:13:38;99620.34;;;0.22;100.00
32033;BME280;31720;52.638;9.216;2023-03-08T04:16:40;99611.56;;;0.29;100.00
32033;BME280;31720;52.638;9.216;2023-03-08T04:19:41;99605.28;;;0.36;100.00
32033;BME280;31720;52.638;9.216;2023-03-08T04:22:43;99611.56;;;0.29;100.00
32033;BME280;31720;52.638;9.216;2023-03-08T04:25:46;99606.47;;;0.26;100.00
32033;BME280;31720;52.638;9.216;2023-03-08T04:28:48;99611.06;;;0.16;100.00
32033;BME280;31720;52.638;9.216;2023-03-08T04:31:49;99608.22;;;0.25;100.00
32033;BME280;31720;52.638;9.216;2023-03-08T04:34:51;99601.34;;;0.24;100.00
32033;BME280;31720;52.638;9.216;2023-03-08T04:37:52;99604.91;;;0.20;100.00
32033;BME280;31720;52.638;9.216;2023-03-08T04:40:55;99612.72;;;0.19;100.00
32033;BME280;31720;52.638;9.216;2023-03-08T04:44:04;99602.97;;;0.29;100.00
32033;BME280;31720;52.638;9.216;2023-03-08T04:47:05;99615.06;;;0.27;100.00
32033;BME280;31720;52.638;9.216;2023-03-08T04:50:08;99601.28;;;0.28;100.00
32033;BME280;31720;52.638;9.216;2023-03-08T04:53:09;99602.13;;;0.27;100.00
32033;BME280;31720;52.638;9.216;2023-03-08T04:56:13;99594.38;;;0.28;100.00
32033;BME280;31720;52.638;9.216;2023-03-08T04:59:15;99603.84;;;0.28;100.00
32033;BME280;31720;52.638;9.216;2023-03-08T05:02:16;99604.97;;;0.19;100.00
32033;BME280;31720;52.638;9.216;2023-03-08T05:05:18;99588.34;;;0.28;100.00
32033;BME280;31720;52.638;9.216;2023-03-08T05:08:20;99595.06;;;0.33;100.00
32033;BME280;31720;52.638;9.216;2023-03-08T05:11:25;99594.97;;;0.36;100.00
32033;BME280;31720;52.638;9.216;2023-03-08T05:14:27;99594.97;;;0.36;100.00
32033;BME280;31720;52.638;9.216;2023-03-08T05:17:28;99600.94;;;0.38;100.00
32033;BME280;31720;52.638;9.216;2023-03-08T05:20:29;99601.50;;;0.48;100.00
32033;BME280;31720;52.638;9.216;2023-03-08T05:23:31;99590.47;;;0.43;100.00
32033;BME280;31720;52.638;9.216;2023-03-08T05:26:34;99577.97;;;0.29;100.00
32033;BME280;31720;52.638;9.216;2023-03-08T05:29:35;99566.50;;;0.38;100.00
32033;BME280;31720;52.638;9.216;2023-03-08T05:32:37;99564.69;;;0.41;100.00
32033;BME280;31720;52.638;9.216;2023-03-08T05:35:38;99560.38;;;0.40;100.00
32033;BME280;31720;52.638;9.216;2023-03-08T05:38:39;99548.34;;;0.39;100.00
32033;BME280;31720;52.638;9.216;2023-03-08T05:41:42;99549.97;;;0.43;100.00
32033;BME280;31720;52.638;9.216;2023-03-08T05:44:43;99547.31;;;0.45;100.00
32033;BME280;31720;52.638;9.216;2023-03-08T05:47:45;99548.13;;;0.47;100.00
32033;BME280;31720;52.638;9.216;2023-03-08T05:50:46;99545.56;;;0.45;100.00
32033;BME280;31720;52.638;9.216;2023-03-08T05:53:47;99549.25;;;0.38;100.00
32033;BME280;31720;52.638;9.216;2023-03-08T05:56:50;99550.16;;;0.37;100.00
32033;BME280;31720;52.638;9.216;2023-03-08T05:59:51;99544.94;;;0.39;100.00
32033;BME280;31720;52.638;9.216;2023-03-08T06:02:53;99541.50;;;0.38;100.00
32033;BME280;31720;52.638;9.216;2023-03-08T06:05:54;99540.53;;;0.41;100.00
32033;BME280;31720;52.638;9.216;2023-03-08T06:08:55;99540.66;;;0.38;100.00
32033;BME280;31720;52.638;9.216;2023-03-08T06:11:58;99543.81;;;0.47;100.00
32033;BME280;31720;52.638;9.216;2023-03-08T06:15:00;99540.28;;;0.50;100.00
32033;BME280;31720;52.638;9.216;2023-03-08T06:18:01;99538.63;;;0.47;100.00
32033;BME280;31720;52.638;9.216;2023-03-08T06:21:04;99525.38;;;0.30;100.00
32033;BME280;31720;52.638;9.216;2023-03-08T06:24:05;99540.66;;;0.38;100.00
32033;BME280;31720;52.638;9.216;2023-03-08T06:27:08;99534.31;;;0.48;100.00
32033;BME280;31720;52.638;9.216;2023-03-08T06:30:10;99534.22;;;0.51;100.00
32033;BME280;31720;52.638;9.216;2023-03-08T06:33:12;99525.50;;;0.54;100.00
32033;BME280;31720;52.638;9.216;2023-03-08T06:36:15;99520.34;;;0.54;100.00
32033;BME280;31720;52.638;9.216;2023-03-08T06:39:17;99537.59;;;0.53;100.00
32033;BME280;31720;52.638;9.216;2023-03-08T06:42:19;99532.38;;;0.55;100.00
32033;BME280;31720;52.638;9.216;2023-03-08T06:45:21;99540.09;;;0.56;100.00
32033;BME280;31720;52.638;9.216;2023-03-08T06:48:22;99540.88;;;0.58;100.00
32033;BME280;31720;52.638;9.216;2023-03-08T06:51:24;99537.34;;;0.61;100.00
32033;BME280;31720;52.638;9.216;2023-03-08T06:54:25;99543.28;;;0.64;100.00
32033;BME280;31720;52.638;9.216;2023-03-08T06:57:28;99544.91;;;0.67;100.00
32033;BME280;31720;52.638;9.216;2023-03-08T07:00:29;99538.09;;;0.64;100.00
32033;BME280;31720;52.638;9.216;2023-03-08T07:03:31;99526.78;;;0.68;100.00
32033;BME280;31720;52.638;9.216;2023-03-08T07:06:33;99533.63;;;0.69;100.00
32033;BME280;31720;52.638;9.216;2023-03-08T07:09:34;99525.81;;;0.71;100.00
32033;BME280;31720;52.638;9.216;2023-03-08T07:12:37;99523.91;;;0.76;100.00
32033;BME280;31720;52.638;9.216;2023-03-08T07:15:42;99519.50;;;0.80;100.00
32033;BME280;31720;52.638;9.216;2023-03-08T07:18:43;99525.56;;;0.79;100.00
32033;BME280;31720;52.638;9.216;2023-03-08T07:21:45;99516.91;;;0.80;100.00
32033;BME280;31720;52.638;9.216;2023-03-08T07:24:46;99516.28;;;0.73;100.00
32033;BME280;31720;52.638;9.216;2023-03-08T07:27:49;99511.00;;;0.76;100.00
32033;BME280;31720;52.638;9.216;2023-03-08T07:30:51;99507.50;;;0.77;100.00
32033;BME280;31720;52.638;9.216;2023-03-08T07:33:53;99497.13;;;0.79;100.00
32033;BME280;31720;52.638;9.216;2023-03-08T07:36:54;99501.47;;;0.78;100.00
32033;BME280;31720;52.638;9.216;2023-03-08T07:39:56;99509.06;;;0.83;100.00
32033;BME280;31720;52.638;9.216;2023-03-08T07:42:58;99502.00;;;0.88;100.00
32033;BME280;31720;52.638;9.216;2023-03-08T07:46:01;99501.94;;;0.89;100.00
32033;BME280;31720;52.638;9.216;2023-03-08T07:49:02;99497.50;;;0.93;100.00
32033;BME280;31720;52.638;9.216;2023-03-08T07:52:09;99498.56;;;0.87;100.00
32033;BME280;31720;52.638;9.216;2023-03-08T07:55:10;99508.53;;;0.98;100.00
32033;BME280;31720;52.638;9.216;2023-03-08T07:58:13;99504.00;;;1.05;100.00
32033;BME280;31720;52.638;9.216;2023-03-08T08:01:15;99508.47;;;0.99;100.00
32033;BME280;31720;52.638;9.216;2023-03-08T08:04:16;99499.72;;;1.04;100.00
32033;BME280;31720;52.638;9.216;2023-03-08T08:07:17;99506.63;;;1.03;100.00
32033;BME280;31720;52.638;9.216;2023-03-08T08:10:19;99505.56;;;1.09;100.00
32033;BME280;31720;52.638;9.216;2023-03-08T08:13:21;99510.81;;;1.07;100.00
32033;BME280;31720;52.638;9.216;2023-03-08T08:16:23;99507.22;;;1.11;100.00
32033;BME280;31720;52.638;9.216;2023-03-08T08:19:25;99497.53;;;1.16;100.00
32033;BME280;31720;52.638;9.216;2023-03-08T08:22:26;99497.59;;;1.15;100.00
32033;BME280;31720;52.638;9.216;2023-03-08T08:25:27;99494.91;;;1.18;100.00
32033;BME280;31720;52.638;9.216;2023-03-08T08:28:30;99499.88;;;1.24;100.00
32033;BME280;31720;52.638;9.216;2023-03-08T08:31:32;99487.69;;;1.27;100.00
32033;BME280;31720;52.638;9.216;2023-03-08T08:34:33;99497.72;;;1.35;100.00
32033;BME280;31720;52.638;9.216;2023-03-08T08:37:35;99490.19;;;1.29;100.00
32033;BME280;31720;52.638;9.216;2023-03-08T08:40:36;99493.38;;;1.37;100.00
32033;BME280;31720;52.638;9.216;2023-03-08T08:43:39;99484.75;;;1.37;100.00
32033;BME280;31720;52.638;9.216;2023-03-08T08:46:40;99486.31;;;1.41;100.00
32033;BME280;31720;52.638;9.216;2023-03-08T08:49:41;99482.69;;;1.46;100.00
32033;BME280;31720;52.638;9.216;2023-03-08T08:52:43;99475.66;;;1.50;100.00
32033;BME280;31720;52.638;9.216;2023-03-08T08:55:44;99475.50;;;1.53;100.00
32033;BME280;31720;52.638;9.216;2023-03-08T08:58:47;99475.50;;;1.53;100.00
32033;BME280;31720;52.638;9.216;2023-03-08T09:01:48;99476.50;;;1.50;100.00
32033;BME280;31720;52.638;9.216;2023-03-08T09:04:49;99466.31;;;1.46;100.00
32033;BME280;31720;52.638;9.216;2023-03-08T09:07:52;99470.66;;;1.45;100.00
32033;BME280;31720;52.638;9.216;2023-03-08T09:10:53;99457.56;;;1.48;100.00
32033;BME280;31720;52.638;9.216;2023-03-08T09:13:56;99461.56;;;1.57;100.00
32033;BME280;31720;52.638;9.216;2023-03-08T09:16:57;99459.63;;;1.62;100.00
32033;BME280;31720;52.638;9.216;2023-03-08T09:19:59;99447.31;;;1.69;100.00
32033;BME280;31720;52.638;9.216;2023-03-08T09:23:00;99458.72;;;1.63;100.00
32033;BME280;31720;52.638;9.216;2023-03-08T09:26:02;99447.44;;;1.66;100.00
32033;BME280;31720;52.638;9.216;2023-03-08T09:29:06;99448.16;;;1.69;100.00
32033;BME280;31720;52.638;9.216;2023-03-08T09:32:07;99436.00;;;1.71;100.00
32033;BME280;31720;52.638;9.216;2023-03-08T09:35:09;99439.56;;;1.69;100.00
32033;BME280;31720;52.638;9.216;2023-03-08T09:38:10;99434.31;;;1.70;100.00
32033;BME280;31720;52.638;9.216;2023-03-08T09:41:24;99432.44;;;1.74;100.00
32033;BME280;31720;52.638;9.216;2023-03-08T09:44:47;99435.69;;;1.79;100.00
32033;BME280;31720;52.638;9.216;2023-03-08T09:47:57;99424.81;;;1.93;100.00
32033;BME280;31720;52.638;9.216;2023-03-08T09:51:08;99424.69;;;1.96;100.00
32033;BME280;31720;52.638;9.216;2023-03-08T09:54:13;99416.78;;;1.99;100.00
32033;BME280;31720;52.638;9.216;2023-03-08T09:57:21;99406.13;;;2.07;100.00
32033;BME280;31720;52.638;9.216;2023-03-08T10:00:28;99396.53;;;2.09;100.00
32033;BME280;31720;52.638;9.216;2023-03-08T10:03:49;99391.31;;;2.10;100.00
32033;BME280;31720;52.638;9.216;2023-03-08T10:07:04;99399.06;;;2.10;100.00
32033;BME280;31720;52.638;9.216;2023-03-08T10:10:17;99393.09;;;2.08;100.00
32033;BME280;31720;52.638;9.216;2023-03-08T10:13:29;99388.75;;;2.09;100.00
32033;BME280;31720;52.638;9.216;2023-03-08T10:16:35;99390.38;;;2.11;100.00
32033;BME280;31720;52.638;9.216;2023-03-08T10:19:41;99386.03;;;2.12;100.00
32033;BME280;31720;52.638;9.216;2023-03-08T10:22:50;99387.59;;;2.16;100.00
32033;BME280;31720;52.638;9.216;2023-03-08T10:25:54;99376.09;;;2.23;100.00
32033;BME280;31720;52.638;9.216;2023-03-08T10:28:55;99378.72;;;2.21;100.00
32033;BME280;31720;52.638;9.216;2023-03-08T10:31:58;99377.59;;;2.28;100.00
32033;BME280;31720;52.638;9.216;2023-03-08T10:35:00;99368.63;;;2.36;100.00
32033;BME280;31720;52.638;9.216;2023-03-08T10:38:02;99372.03;;;2.38;100.00
32033;BME280;31720;52.638;9.216;2023-03-08T10:41:09;99363.13;;;2.43;100.00
32033;BME280;31720;52.638;9.216;2023-03-08T10:44:15;99358.88;;;2.42;100.00
32033;BME280;31720;52.638;9.216;2023-03-08T10:47:20;99356.91;;;2.47;100.00
32033;BME280;31720;52.638;9.216;2023-03-08T10:50:24;99346.47;;;2.49;100.00
32033;BME280;31720;52.638;9.216;2023-03-08T10:53:26;99348.50;;;2.42;100.00
32033;BME280;31720;52.638;9.216;2023-03-08T10:56:35;99341.81;;;2.37;100.00
32033;BME280;31720;52.638;9.216;2023-03-08T10:59:37;99333.25;;;2.35;100.00
32033;BME280;31720;52.638;9.216;2023-03-08T11:02:40;99338.69;;;2.49;100.00
32033;BME280;31720;52.638;9.216;2023-03-08T11:05:51;99337.00;;;2.48;100.00
32033;BME280;31720;52.638;9.216;2023-03-08T11:08:55;99337.44;;;2.58;100.00
32033;BME280;31720;52.638;9.216;2023-03-08T11:11:58;99333.69;;;2.65;100.00
32033;BME280;31720;52.638;9.216;2023-03-08T11:15:00;99332.47;;;2.73;100.00
32033;BME280;31720;52.638;9.216;2023-03-08T11:18:08;99328.94;;;2.74;100.00
32033;BME280;31720;52.638;9.216;2023-03-08T11:21:25;99322.75;;;2.77;100.00
32033;BME280;31720;52.638;9.216;2023-03-08T11:24:38;99321.47;;;2.87;100.00
32033;BME280;31720;52.638;9.216;2023-03-08T11:27:52;99328.34;;;2.88;100.00
32033;BME280;31720;52.638;9.216;2023-03-08T11:31:08;99322.38;;;2.86;100.00
32033;BME280;31720;52.638;9.216;2023-03-08T11:34:23;99312.47;;;2.94;100.00
32033;BME280;31720;52.638;9.216;2023-03-08T11:37:36;99310.88;;;3.11;100.00
32033;BME280;31720;52.638;9.216;2023-03-08T11:40:47;99303.31;;;3.06;100.00
32033;BME280;31720;52.638;9.216;2023-03-08T11:44:20;99295.00;;;3.17;100.00
32033;BME280;31720;52.638;9.216;2023-03-08T11:47:50;99303.16;;;3.28;100.00
32033;BME280;31720;52.638;9.216;2023-03-08T11:51:03;99302.16;;;3.30;100.00
32033;BME280;31720;52.638;9.216;2023-03-08T11:54:13;99303.66;;;3.36;100.00
32033;BME280;31720;52.638;9.216;2023-03-08T11:57:17;99292.69;;;3.29;100.00
32033;BME280;31720;52.638;9.216;2023-03-08T12:00:23;99288.00;;;3.19;100.00
32033;BME280;31720;52.638;9.216;2023-03-08T12:03:30;99289.78;;;3.18;100.00
32033;BME280;31720;52.638;9.216;2023-03-08T12:06:38;99284.59;;;3.18;100.00
32033;BME280;31720;52.638;9.216;2023-03-08T12:09:52;99284.63;;;3.17;100.00
32033;BME280;31720;52.638;9.216;2023-03-08T12:12:58;99284.81;;;3.31;100.00
32033;BME280;31720;52.638;9.216;2023-03-08T12:16:07;99282.44;;;3.45;100.00
32033;BME280;31720;52.638;9.216;2023-03-08T12:19:15;99285.47;;;3.36;100.00
32033;BME280;31720;52.638;9.216;2023-03-08T12:22:27;99275.00;;;3.38;100.00
32033;BME280;31720;52.638;9.216;2023-03-08T12:25:34;99272.53;;;3.35;100.00
32033;BME280;31720;52.638;9.216;2023-03-08T12:28:41;99274.31;;;3.34;100.00
32033;BME280;31720;52.638;9.216;2023-03-08T12:31:45;99265.09;;;3.46;100.00
32033;BME280;31720;52.638;9.216;2023-03-08T12:34:47;99264.72;;;3.53;100.00
32033;BME280;31720;52.638;9.216;2023-03-08T12:38:03;99256.03;;;3.54;100.00
32033;BME280;31720;52.638;9.216;2023-03-08T12:41:21;99263.66;;;3.58;100.00
32033;BME280;31720;52.638;9.216;2023-03-08T12:44:24;99266.34;;;3.73;100.00
32033;BME280;31720;52.638;9.216;2023-03-08T12:47:26;99261.78;;;3.78;100.00
32033;BME280;31720;52.638;9.216;2023-03-08T12:50:29;99259.69;;;3.85;100.00
32033;BME280;31720;52.638;9.216;2023-03-08T12:53:36;99247.72;;;3.83;100.00
32033;BME280;31720;52.638;9.216;2023-03-08T12:56:49;99248.47;;;3.85;100.00
32033;BME280;31720;52.638;9.216;2023-03-08T12:59:55;99250.09;;;3.87;100.00
32033;BME280;31720;52.638;9.216;2023-03-08T13:03:03;99247.41;;;3.89;100.00
32033;BME280;31720;52.638;9.216;2023-03-08T13:06:34;99249.00;;;3.91;100.00
32033;BME280;31720;52.638;9.216;2023-03-08T13:09:46;99247.41;;;3.89;100.00
32033;BME280;31720;52.638;9.216;2023-03-08T13:13:02;99238.69;;;3.90;100.00
32033;BME280;31720;52.638;9.216;2023-03-08T13:16:19;99229.91;;;3.92;100.00
32033;BME280;31720;52.638;9.216;2023-03-08T13:19:25;99231.56;;;3.93;100.00
32033;BME280;31720;52.638;9.216;2023-03-08T13:22:29;99236.41;;;3.84;100.00
32033;BME280;31720;52.638;9.216;2023-03-08T13:26:05;99245.13;;;3.83;100.00
32033;BME280;31720;52.638;9.216;2023-03-08T13:29:15;99249.84;;;3.74;100.00
32033;BME280;31720;52.638;9.216;2023-03-08T13:32:19;99245.13;;;3.83;100.00
32033;BME280;31720;52.638;9.216;2023-03-08T13:35:21;99247.34;;;3.73;100.00
32033;BME280;31720;52.638;9.216;2023-03-08T13:38:27;99242.19;;;3.71;100.00
32033;BME280;31720;52.638;9.216;2023-03-08T13:41:35;99243.72;;;3.75;100.00
32033;BME280;31720;52.638;9.216;2023-03-08T13:44:38;99253.13;;;3.78;100.00
32033;BME280;31720;52.638;9.216;2023-03-08T13:47:39;99254.81;;;3.79;100.00
32033;BME280;31720;52.638;9.216;2023-03-08T13:50:42;99248.09;;;3.75;100.00
32033;BME280;31720;52.638;9.216;2023-03-08T13:53:44;99242.88;;;3.75;100.00
32033;BME280;31720;52.638;9.216;2023-03-08T13:56:51;99241.34;;;3.71;100.00
32033;BME280;31720;52.638;9.216;2023-03-08T13:59:54;99240.22;;;3.76;100.00
32033;BME280;31720;52.638;9.216;2023-03-08T14:02:56;99244.09;;;3.85;100.00
32033;BME280;31720;52.638;9.216;2023-03-08T14:05:58;99226.53;;;3.90;100.00
32033;BME280;31720;52.638;9.216;2023-03-08T14:08:59;99233.34;;;3.93;100.00
32033;BME280;31720;52.638;9.216;2023-03-08T14:12:05;99240.75;;;3.83;100.00
32033;BME280;31720;52.638;9.216;2023-03-08T14:15:15;99241.97;;;3.76;100.00
32033;BME280;31720;52.638;9.216;2023-03-08T14:18:21;99243.47;;;3.63;100.00
32033;BME280;31720;52.638;9.216;2023-03-08T14:21:25;99235.78;;;3.61;100.00
32033;BME280;31720;52.638;9.216;2023-03-08T14:24:29;99234.09;;;3.60;100.00
32033;BME280;31720;52.638;9.216;2023-03-08T14:27:37;99227.16;;;3.61;100.00
32033;BME280;31720;52.638;9.216;2023-03-08T14:30:45;99225.09;;;3.50;100.00
32033;BME280;31720;52.638;9.216;2023-03-08T14:33:55;99222.50;;;3.50;100.00
32033;BME280;31720;52.638;9.216;2023-03-08T14:36:59;99219.81;;;3.51;100.00
32033;BME280;31720;52.638;9.216;2023-03-08T14:40:22;99221.78;;;3.46;100.00
32033;BME280;31720;52.638;9.216;2023-03-08T14:43:25;99225.75;;;3.36;100.00
32033;BME280;31720;52.638;9.216;2023-03-08T14:46:28;99231.09;;;3.33;100.00
32033;BME280;31720;52.638;9.216;2023-03-08T14:49:30;99225.75;;;3.36;100.00
32033;BME280;31720;52.638;9.216;2023-03-08T14:52:34;99220.72;;;3.33;100.00
32033;BME280;31720;52.638;9.216;2023-03-08T14:55:35;99204.06;;;3.37;100.00
32033;BME280;31720;52.638;9.216;2023-03-08T14:58:42;99195.81;;;3.29;100.00
32033;BME280;31720;52.638;9.216;2023-03-08T15:01:43;99200.22;;;3.27;100.00
32033;BME280;31720;52.638;9.216;2023-03-08T15:04:45;99190.69;;;3.27;100.00
32033;BME280;31720;52.638;9.216;2023-03-08T15:07:47;99187.19;;;3.28;100.00
32033;BME280;31720;52.638;9.216;2023-03-08T15:10:49;99186.00;;;3.17;100.00
32033;BME280;31720;52.638;9.216;2023-03-08T15:13:52;99185.03;;;3.19;100.00
32033;BME280;31720;52.638;9.216;2023-03-08T15:16:54;99182.25;;;3.22;100.00
32033;BME280;31720;52.638;9.216;2023-03-08T15:19:57;99183.19;;;3.21;100.00
32033;BME280;31720;52.638;9.216;2023-03-08T15:23:00;99179.34;;;3.11;100.00
32033;BME280;31720;52.638;9.216;2023-03-08T15:26:05;99180.19;;;3.12;100.00
32033;BME280;31720;52.638;9.216;2023-03-08T15:29:16;99178.53;;;3.11;100.00
32033;BME280;31720;52.638;9.216;2023-03-08T15:32:19;99184.41;;;3.14;100.00
32033;BME280;31720;52.638;9.216;2023-03-08T15:35:21;99191.34;;;3.14;100.00
32033;BME280;31720;52.638;9.216;2023-03-08T15:38:23;99190.66;;;3.10;100.00
32033;BME280;31720;52.638;9.216;2023-03-08T15:41:24;99200.81;;;3.15;100.00
32033;BME280;31720;52.638;9.216;2023-03-08T15:44:27;99197.59;;;3.10;100.00
32033;BME280;31720;52.638;9.216;2023-03-08T15:47:28;99198.59;;;3.07;100.00
32033;BME280;31720;52.638;9.216;2023-03-08T15:50:31;99197.44;;;2.95;100.00
32033;BME280;31720;52.638;9.216;2023-03-08T15:53:33;99195.72;;;2.94;100.00
32033;BME280;31720;52.638;9.216;2023-03-08T15:56:34;99200.78;;;2.97;100.00
32033;BME280;31720;52.638;9.216;2023-03-08T15:59:37;99200.44;;;2.86;100.00
32033;BME280;31720;52.638;9.216;2023-03-08T16:02:39;99202.34;;;2.83;100.00
32033;BME280;31720;52.638;9.216;2023-03-08T16:05:40;99199.13;;;2.77;100.00
32033;BME280;31720;52.638;9.216;2023-03-08T16:08:42;99201.97;;;2.71;100.00
32033;BME280;31720;52.638;9.216;2023-03-08T16:11:43;99193.34;;;2.71;100.00
32033;BME280;31720;52.638;9.216;2023-03-08T16:14:47;99201.28;;;2.68;100.00